sensor_id;sensor_type;location;lat;lon;timestamp;P1;durP1;ratioP1;P2;durP2;ratioP2
74995;SDS011;63545;51.690;5.202;2023-04-01T00:01:00;19.33;;;9.40;;
74995;SDS011;63545;51.690;5.202;2023-04-01T00:03:27;19.77;;;8.95;;
74995;SDS011;63545;51.690;5.202;2023-04-01T00:05:53;18.60;;;9.20;;
74995;SDS011;63545;51.690;5.202;2023-04-01T00:08:20;17.38;;;9.02;;
74995;SDS011;63545;51.690;5.202;2023-04-01T00:10:45;16.98;;;9.43;;
74995;SDS011;63545;51.690;5.202;2023-04-01T00:13:11;14.57;;;8.60;;
74995;SDS011;63545;51.690;5.202;2023-04-01T00:15:36;16.00;;;9.90;;
74995;SDS011;63545;51.690;5.202;2023-04-01T00:18:02;15.97;;;9.17;;
74995;SDS011;63545;51.690;5.202;2023-04-01T00:20:28;17.38;;;8.75;;
74995;SDS011;63545;51.690;5.202;2023-04-01T00:22:53;14.50;;;9.00;;
74995;SDS011;63545;51.690;5.202;2023-04-01T00:25:19;19.02;;;9.25;;
74995;SDS011;63545;51.690;5.202;2023-04-01T00:27:44;14.40;;;6.33;;
74995;SDS011;63545;51.690;5.202;2023-04-01T00:30:10;18.20;;;9.17;;
74995;SDS011;63545;51.690;5.202;2023-04-01T00:32:36;20.63;;;8.95;;
74995;SDS011;63545;51.690;5.202;2023-04-01T00:35:01;22.40;;;9.37;;
74995;SDS011;63545;51.690;5.202;2023-04-01T00:37:28;16.13;;;8.75;;
74995;SDS011;63545;51.690;5.202;2023-04-01T00:39:54;18.50;;;8.75;;
74995;SDS011;63545;51.690;5.202;2023-04-01T00:42:19;15.95;;;9.05;;
74995;SDS011;63545;51.690;5.202;2023-04-01T00:44:45;18.13;;;8.30;;
74995;SDS011;63545;51.690;5.202;2023-04-01T00:47:13;18.38;;;8.30;;
74995;SDS011;63545;51.690;5.202;2023-04-01T00:49:42;16.73;;;7.77;;
74995;SDS011;63545;51.690;5.202;2023-04-01T00:52:11;18.92;;;8.43;;
74995;SDS011;63545;51.690;5.202;2023-04-01T00:54:38;13.27;;;7.25;;
74995;SDS011;63545;51.690;5.202;2023-04-01T00:57:40;17.37;;;8.30;;
74995;SDS011;63545;51.690;5.202;2023-04-01T01:00:01;15.10;;;7.68;;
74995;SDS011;63545;51.690;5.202;2023-04-01T01:02:27;18.25;;;8.50;;
74995;SDS011;63545;51.690;5.202;2023-04-01T01:04:52;21.23;;;8.00;;
74995;SDS011;63545;51.690;5.202;2023-04-01T01:10:26;11.93;;;5.20;;
74995;SDS011;63545;51.690;5.202;2023-04-01T01:13:04;13.63;;;4.88;;
74995;SDS011;63545;51.690;5.202;2023-04-01T01:18:30;12.30;;;4.57;;
74995;SDS011;63545;51.690;5.202;2023-04-01T01:27:12;10.05;;;3.58;;
74995;SDS011;63545;51.690;5.202;2023-04-01T01:29:45;6.68;;;3.30;;
74995;SDS011;63545;51.690;5.202;2023-04-01T01:35:26;5.82;;;3.05;;
74995;SDS011;63545;51.690;5.202;2023-04-01T01:38:01;8.35;;;3.38;;
74995;SDS011;63545;51.690;5.202;2023-04-01T01:40:29;4.68;;;2.75;;
74995;SDS011;63545;51.690;5.202;2023-04-01T01:42:57;8.65;;;3.42;;
74995;SDS011;63545;51.690;5.202;2023-04-01T01:45:26;8.83;;;3.00;;
74995;SDS011;63545;51.690;5.202;2023-04-01T01:47:51;7.90;;;3.78;;
74995;SDS011;63545;51.690;5.202;2023-04-01T01:50:17;8.20;;;3.15;;
74995;SDS011;63545;51.690;5.202;2023-04-01T01:52:44;6.47;;;3.22;;
74995;SDS011;63545;51.690;5.202;2023-04-01T01:55:32;8.10;;;3.00;;
74995;SDS011;63545;51.690;5.202;2023-04-01T01:58:01;7.65;;;3.30;;
74995;SDS011;63545;51.690;5.202;2023-04-01T02:00:30;7.43;;;2.73;;
74995;SDS011;63545;51.690;5.202;2023-04-01T02:02:55;7.43;;;2.70;;
74995;SDS011;63545;51.690;5.202;2023-04-01T02:05:23;6.73;;;2.87;;
74995;SDS011;63545;51.690;5.202;2023-04-01T02:07:51;9.88;;;3.28;;
74995;SDS011;63545;51.690;5.202;2023-04-01T02:10:22;11.35;;;3.65;;
74995;SDS011;63545;51.690;5.202;2023-04-01T02:12:50;10.73;;;3.70;;
74995;SDS011;63545;51.690;5.202;2023-04-01T02:15:17;13.43;;;4.18;;
74995;SDS011;63545;51.690;5.202;2023-04-01T02:17:43;14.27;;;4.60;;
74995;SDS011;63545;51.690;5.202;2023-04-01T02:20:17;16.05;;;4.70;;
74995;SDS011;63545;51.690;5.202;2023-04-01T02:22:50;16.75;;;4.60;;
74995;SDS011;63545;51.690;5.202;2023-04-01T02:25:21;10.27;;;4.30;;
74995;SDS011;63545;51.690;5.202;2023-04-01T02:27:49;15.45;;;4.75;;
74995;SDS011;63545;51.690;5.202;2023-04-01T02:30:15;14.93;;;4.70;;
74995;SDS011;63545;51.690;5.202;2023-04-01T02:32:41;13.48;;;4.53;;
74995;SDS011;63545;51.690;5.202;2023-04-01T02:35:10;14.07;;;4.20;;
74995;SDS011;63545;51.690;5.202;2023-04-01T02:37:38;13.57;;;4.50;;
74995;SDS011;63545;51.690;5.202;2023-04-01T02:40:07;13.98;;;4.50;;
74995;SDS011;63545;51.690;5.202;2023-04-01T02:42:35;10.70;;;3.65;;
74995;SDS011;63545;51.690;5.202;2023-04-01T02:45:00;12.30;;;4.07;;
74995;SDS011;63545;51.690;5.202;2023-04-01T02:47:26;11.03;;;3.77;;
74995;SDS011;63545;51.690;5.202;2023-04-01T02:49:51;10.77;;;3.70;;
74995;SDS011;63545;51.690;5.202;2023-04-01T02:52:22;12.25;;;3.50;;
74995;SDS011;63545;51.690;5.202;2023-04-01T02:54:48;7.40;;;3.38;;
74995;SDS011;63545;51.690;5.202;2023-04-01T02:57:13;10.07;;;3.80;;
74995;SDS011;63545;51.690;5.202;2023-04-01T02:59:39;9.60;;;3.30;;
74995;SDS011;63545;51.690;5.202;2023-04-01T03:02:04;12.87;;;4.30;;
74995;SDS011;63545;51.690;5.202;2023-04-01T03:04:30;6.23;;;3.60;;
74995;SDS011;63545;51.690;5.202;2023-04-01T03:06:55;5.97;;;3.17;;
74995;SDS011;63545;51.690;5.202;2023-04-01T03:09:21;8.67;;;3.93;;
74995;SDS011;63545;51.690;5.202;2023-04-01T03:11:46;9.83;;;4.70;;
74995;SDS011;63545;51.690;5.202;2023-04-01T03:14:11;8.23;;;4.28;;
74995;SDS011;63545;51.690;5.202;2023-04-01T03:16:37;14.27;;;5.93;;
74995;SDS011;63545;51.690;5.202;2023-04-01T03:19:02;13.77;;;5.57;;
74995;SDS011;63545;51.690;5.202;2023-04-01T03:21:27;15.43;;;5.90;;
74995;SDS011;63545;51.690;5.202;2023-04-01T03:23:53;14.23;;;6.27;;
74995;SDS011;63545;51.690;5.202;2023-04-01T03:26:18;14.43;;;6.50;;
74995;SDS011;63545;51.690;5.202;2023-04-01T03:28:44;19.37;;;7.50;;
74995;SDS011;63545;51.690;5.202;2023-04-01T03:31:10;16.83;;;7.27;;
74995;SDS011;63545;51.690;5.202;2023-04-01T03:33:35;18.35;;;8.02;;
74995;SDS011;63545;51.690;5.202;2023-04-01T03:36:01;17.43;;;8.03;;
74995;SDS011;63545;51.690;5.202;2023-04-01T03:38:28;17.48;;;7.72;;
74995;SDS011;63545;51.690;5.202;2023-04-01T03:40:53;21.03;;;7.97;;
74995;SDS011;63545;51.690;5.202;2023-04-01T03:43:19;16.27;;;7.10;;
74995;SDS011;63545;51.690;5.202;2023-04-01T03:45:46;18.97;;;7.70;;
74995;SDS011;63545;51.690;5.202;2023-04-01T03:48:12;18.48;;;7.30;;
74995;SDS011;63545;51.690;5.202;2023-04-01T03:50:38;14.52;;;5.72;;
74995;SDS011;63545;51.690;5.202;2023-04-01T03:53:04;13.10;;;6.07;;
74995;SDS011;63545;51.690;5.202;2023-04-01T03:55:29;16.27;;;6.37;;
74995;SDS011;63545;51.690;5.202;2023-04-01T03:57:54;11.87;;;5.93;;
74995;SDS011;63545;51.690;5.202;2023-04-01T04:00:20;14.43;;;5.70;;
74995;SDS011;63545;51.690;5.202;2023-04-01T04:02:45;14.17;;;5.40;;
74995;SDS011;63545;51.690;5.202;2023-04-01T04:05:10;8.93;;;4.23;;
74995;SDS011;63545;51.690;5.202;2023-04-01T04:07:36;14.03;;;5.50;;
74995;SDS011;63545;51.690;5.202;2023-04-01T04:10:02;14.80;;;6.00;;
74995;SDS011;63545;51.690;5.202;2023-04-01T04:12:27;10.50;;;5.80;;
74995;SDS011;63545;51.690;5.202;2023-04-01T04:14:53;13.67;;;5.60;;
74995;SDS011;63545;51.690;5.202;2023-04-01T04:17:18;15.10;;;5.77;;
74995;SDS011;63545;51.690;5.202;2023-04-01T04:19:43;15.95;;;5.47;;
74995;SDS011;63545;51.690;5.202;2023-04-01T04:22:09;12.93;;;5.73;;
74995;SDS011;63545;51.690;5.202;2023-04-01T04:24:34;15.93;;;6.43;;
74995;SDS011;63545;51.690;5.202;2023-04-01T04:27:00;11.73;;;6.00;;
74995;SDS011;63545;51.690;5.202;2023-04-01T04:29:26;13.97;;;5.77;;
74995;SDS011;63545;51.690;5.202;2023-04-01T04:31:51;9.07;;;4.10;;
74995;SDS011;63545;51.690;5.202;2023-04-01T04:34:17;12.63;;;6.80;;
74995;SDS011;63545;51.690;5.202;2023-04-01T04:36:43;13.93;;;7.10;;
74995;SDS011;63545;51.690;5.202;2023-04-01T04:39:09;18.25;;;8.32;;
74995;SDS011;63545;51.690;5.202;2023-04-01T04:41:36;15.93;;;7.90;;
74995;SDS011;63545;51.690;5.202;2023-04-01T04:44:02;9.13;;;5.70;;
74995;SDS011;63545;51.690;5.202;2023-04-01T04:46:27;19.80;;;10.10;;
74995;SDS011;63545;51.690;5.202;2023-04-01T04:48:53;21.83;;;10.00;;
74995;SDS011;63545;51.690;5.202;2023-04-01T04:51:20;25.10;;;10.67;;
74995;SDS011;63545;51.690;5.202;2023-04-01T04:53:46;24.85;;;10.75;;
74995;SDS011;63545;51.690;5.202;2023-04-01T04:56:11;17.10;;;7.90;;
74995;SDS011;63545;51.690;5.202;2023-04-01T04:58:37;23.10;;;10.03;;
74995;SDS011;63545;51.690;5.202;2023-04-01T05:01:09;21.30;;;9.88;;
74995;SDS011;63545;51.690;5.202;2023-04-01T05:03:36;28.10;;;11.30;;
74995;SDS011;63545;51.690;5.202;2023-04-01T05:06:02;16.43;;;8.53;;
74995;SDS011;63545;51.690;5.202;2023-04-01T05:08:27;11.77;;;6.37;;
74995;SDS011;63545;51.690;5.202;2023-04-01T05:10:53;15.57;;;7.93;;
74995;SDS011;63545;51.690;5.202;2023-04-01T05:13:19;12.13;;;6.03;;
74995;SDS011;63545;51.690;5.202;2023-04-01T05:15:44;15.18;;;8.60;;
74995;SDS011;63545;51.690;5.202;2023-04-01T05:18:10;19.63;;;10.03;;
74995;SDS011;63545;51.690;5.202;2023-04-01T05:20:35;20.97;;;10.07;;
74995;SDS011;63545;51.690;5.202;2023-04-01T05:23:00;17.63;;;9.47;;
74995;SDS011;63545;51.690;5.202;2023-04-01T05:25:26;25.40;;;11.17;;
74995;SDS011;63545;51.690;5.202;2023-04-01T05:27:51;24.65;;;10.90;;
74995;SDS011;63545;51.690;5.202;2023-04-01T05:30:17;26.50;;;10.50;;
74995;SDS011;63545;51.690;5.202;2023-04-01T05:32:43;25.83;;;12.27;;
74995;SDS011;63545;51.690;5.202;2023-04-01T05:35:08;20.33;;;10.37;;
74995;SDS011;63545;51.690;5.202;2023-04-01T05:37:34;31.83;;;13.10;;
74995;SDS011;63545;51.690;5.202;2023-04-01T05:40:00;29.23;;;12.45;;
74995;SDS011;63545;51.690;5.202;2023-04-01T05:42:25;26.35;;;12.60;;
74995;SDS011;63545;51.690;5.202;2023-04-01T05:44:51;36.37;;;13.67;;
74995;SDS011;63545;51.690;5.202;2023-04-01T05:47:16;28.23;;;12.47;;
74995;SDS011;63545;51.690;5.202;2023-04-01T05:49:41;26.57;;;9.87;;
74995;SDS011;63545;51.690;5.202;2023-04-01T05:52:07;34.10;;;13.50;;
74995;SDS011;63545;51.690;5.202;2023-04-01T05:54:32;28.27;;;10.97;;
74995;SDS011;63545;51.690;5.202;2023-04-01T05:56:58;29.73;;;11.82;;
74995;SDS011;63545;51.690;5.202;2023-04-01T05:59:23;30.97;;;11.47;;
74995;SDS011;63545;51.690;5.202;2023-04-01T06:01:48;34.27;;;12.60;;
74995;SDS011;63545;51.690;5.202;2023-04-01T06:04:14;26.33;;;10.60;;
74995;SDS011;63545;51.690;5.202;2023-04-01T06:06:41;34.45;;;11.57;;
74995;SDS011;63545;51.690;5.202;2023-04-01T06:09:17;31.47;;;9.27;;
74995;SDS011;63545;51.690;5.202;2023-04-01T06:11:47;38.30;;;12.45;;
74995;SDS011;63545;51.690;5.202;2023-04-01T06:14:30;33.72;;;11.10;;
74995;SDS011;63545;51.690;5.202;2023-04-01T06:17:12;35.27;;;11.47;;
74995;SDS011;63545;51.690;5.202;2023-04-01T06:36:51;24.00;;;9.93;;
74995;SDS011;63545;51.690;5.202;2023-04-01T06:50:30;40.33;;;12.45;;
74995;SDS011;63545;51.690;5.202;2023-04-01T06:56:27;24.08;;;10.07;;
74995;SDS011;63545;51.690;5.202;2023-04-01T07:01:22;25.87;;;10.47;;
74995;SDS011;63545;51.690;5.202;2023-04-01T07:06:48;22.55;;;9.55;;
74995;SDS011;63545;51.690;5.202;2023-04-01T07:09:18;28.05;;;9.80;;
74995;SDS011;63545;51.690;5.202;2023-04-01T07:11:46;36.70;;;12.07;;
74995;SDS011;63545;51.690;5.202;2023-04-01T07:17:04;29.83;;;10.88;;
74995;SDS011;63545;51.690;5.202;2023-04-01T07:24:57;31.88;;;11.45;;
74995;SDS011;63545;51.690;5.202;2023-04-01T07:27:28;31.80;;;11.77;;
74995;SDS011;63545;51.690;5.202;2023-04-01T07:29:55;22.07;;;8.67;;
74995;SDS011;63545;51.690;5.202;2023-04-01T07:43:59;24.23;;;10.20;;
74995;SDS011;63545;51.690;5.202;2023-04-01T07:46:48;31.70;;;11.75;;
74995;SDS011;63545;51.690;5.202;2023-04-01T07:49:42;21.45;;;10.15;;
74995;SDS011;63545;51.690;5.202;2023-04-01T07:52:33;26.63;;;13.40;;
74995;SDS011;63545;51.690;5.202;2023-04-01T07:55:11;27.25;;;12.45;;
74995;SDS011;63545;51.690;5.202;2023-04-01T08:00:31;39.40;;;15.18;;
74995;SDS011;63545;51.690;5.202;2023-04-01T08:03:14;35.70;;;14.93;;
74995;SDS011;63545;51.690;5.202;2023-04-01T08:06:24;28.67;;;12.35;;
74995;SDS011;63545;51.690;5.202;2023-04-01T08:08:40;27.80;;;12.90;;
74995;SDS011;63545;51.690;5.202;2023-04-01T08:14:19;32.58;;;13.98;;
74995;SDS011;63545;51.690;5.202;2023-04-01T08:16:54;33.80;;;15.25;;
74995;SDS011;63545;51.690;5.202;2023-04-01T08:19:36;23.77;;;10.75;;
74995;SDS011;63545;51.690;5.202;2023-04-01T08:22:27;27.38;;;13.65;;
74995;SDS011;63545;51.690;5.202;2023-04-01T08:24:56;36.03;;;15.00;;
74995;SDS011;63545;51.690;5.202;2023-04-01T08:27:26;40.72;;;15.55;;
74995;SDS011;63545;51.690;5.202;2023-04-01T08:30:45;35.45;;;12.80;;
74995;SDS011;63545;51.690;5.202;2023-04-01T08:32:59;38.28;;;14.80;;
74995;SDS011;63545;51.690;5.202;2023-04-01T08:38:09;30.67;;;13.13;;
74995;SDS011;63545;51.690;5.202;2023-04-01T08:57:35;24.63;;;10.82;;
74995;SDS011;63545;51.690;5.202;2023-04-01T09:00:20;28.98;;;12.35;;
74995;SDS011;63545;51.690;5.202;2023-04-01T09:08:28;27.05;;;10.52;;
74995;SDS011;63545;51.690;5.202;2023-04-01T09:11:06;21.38;;;9.65;;
74995;SDS011;63545;51.690;5.202;2023-04-01T09:19:06;16.07;;;8.67;;
74995;SDS011;63545;51.690;5.202;2023-04-01T09:22:10;28.40;;;11.80;;
74995;SDS011;63545;51.690;5.202;2023-04-01T09:27:57;16.33;;;6.88;;
74995;SDS011;63545;51.690;5.202;2023-04-01T09:30:41;19.77;;;8.95;;
74995;SDS011;63545;51.690;5.202;2023-04-01T09:36:03;10.90;;;6.03;;
74995;SDS011;63545;51.690;5.202;2023-04-01T09:39:32;11.45;;;7.45;;
74995;SDS011;63545;51.690;5.202;2023-04-01T09:44:29;9.77;;;6.18;;
74995;SDS011;63545;51.690;5.202;2023-04-01T09:49:40;12.00;;;7.63;;
74995;SDS011;63545;51.690;5.202;2023-04-01T09:55:14;17.40;;;7.53;;
74995;SDS011;63545;51.690;5.202;2023-04-01T10:00:52;10.47;;;6.20;;
74995;SDS011;63545;51.690;5.202;2023-04-01T10:23:39;14.57;;;7.97;;
74995;SDS011;63545;51.690;5.202;2023-04-01T10:29:28;15.37;;;8.13;;
74995;SDS011;63545;51.690;5.202;2023-04-01T10:35:22;14.38;;;7.00;;
74995;SDS011;63545;51.690;5.202;2023-04-01T10:40:35;14.27;;;9.15;;
74995;SDS011;63545;51.690;5.202;2023-04-01T10:54:13;20.95;;;10.13;;
74995;SDS011;63545;51.690;5.202;2023-04-01T11:03:02;21.45;;;9.90;;
74995;SDS011;63545;51.690;5.202;2023-04-01T11:08:50;21.67;;;10.57;;
74995;SDS011;63545;51.690;5.202;2023-04-01T11:11:47;18.50;;;7.63;;
74995;SDS011;63545;51.690;5.202;2023-04-01T11:23:18;8.05;;;5.35;;
74995;SDS011;63545;51.690;5.202;2023-04-01T11:28:35;12.20;;;6.67;;
74995;SDS011;63545;51.690;5.202;2023-04-01T11:36:29;8.35;;;4.72;;
74995;SDS011;63545;51.690;5.202;2023-04-01T11:42:24;10.63;;;6.38;;
74995;SDS011;63545;51.690;5.202;2023-04-01T11:45:01;11.37;;;5.80;;
74995;SDS011;63545;51.690;5.202;2023-04-01T11:50:21;8.75;;;5.40;;
74995;SDS011;63545;51.690;5.202;2023-04-01T11:58:07;12.83;;;6.37;;
74995;SDS011;63545;51.690;5.202;2023-04-01T12:00:56;9.82;;;5.53;;
74995;SDS011;63545;51.690;5.202;2023-04-01T12:09:18;6.60;;;3.80;;
74995;SDS011;63545;51.690;5.202;2023-04-01T12:12:04;12.20;;;6.77;;
74995;SDS011;63545;51.690;5.202;2023-04-01T12:15:21;9.48;;;5.38;;
74995;SDS011;63545;51.690;5.202;2023-04-01T12:18:08;11.18;;;6.28;;
74995;SDS011;63545;51.690;5.202;2023-04-01T12:37:37;11.70;;;5.45;;
74995;SDS011;63545;51.690;5.202;2023-04-01T12:40:17;9.70;;;5.67;;
74995;SDS011;63545;51.690;5.202;2023-04-01T12:46:00;11.15;;;6.25;;
74995;SDS011;63545;51.690;5.202;2023-04-01T12:49:14;8.30;;;5.03;;
74995;SDS011;63545;51.690;5.202;2023-04-01T12:59:36;8.75;;;5.70;;
74995;SDS011;63545;51.690;5.202;2023-04-01T13:08:04;10.00;;;5.50;;
74995;SDS011;63545;51.690;5.202;2023-04-01T13:15:51;14.25;;;6.43;;
74995;SDS011;63545;51.690;5.202;2023-04-01T13:18:38;13.73;;;7.38;;
74995;SDS011;63545;51.690;5.202;2023-04-01T13:21:15;16.57;;;7.73;;
74995;SDS011;63545;51.690;5.202;2023-04-01T13:42:59;16.15;;;7.32;;
74995;SDS011;63545;51.690;5.202;2023-04-01T13:48:27;12.85;;;6.65;;
74995;SDS011;63545;51.690;5.202;2023-04-01T14:02:04;17.27;;;8.73;;
74995;SDS011;63545;51.690;5.202;2023-04-01T14:04:43;20.63;;;8.60;;
74995;SDS011;63545;51.690;5.202;2023-04-01T14:12:58;11.30;;;6.05;;
74995;SDS011;63545;51.690;5.202;2023-04-01T14:44:57;25.50;;;12.63;;
74995;SDS011;63545;51.690;5.202;2023-04-01T14:48:33;17.05;;;8.98;;
74995;SDS011;63545;51.690;5.202;2023-04-01T14:50:42;16.23;;;8.02;;
74995;SDS011;63545;51.690;5.202;2023-04-01T15:00:47;19.92;;;8.70;;
74995;SDS011;63545;51.690;5.202;2023-04-01T15:03:18;16.88;;;8.13;;
74995;SDS011;63545;51.690;5.202;2023-04-01T15:08:51;13.23;;;7.17;;
74995;SDS011;63545;51.690;5.202;2023-04-01T15:11:23;17.65;;;8.88;;
74995;SDS011;63545;51.690;5.202;2023-04-01T15:43:45;28.10;;;11.40;;
74995;SDS011;63545;51.690;5.202;2023-04-01T15:48:58;16.97;;;8.30;;
74995;SDS011;63545;51.690;5.202;2023-04-01T15:53:56;17.13;;;8.40;;
74995;SDS011;63545;51.690;5.202;2023-04-01T15:56:28;24.15;;;11.90;;
74995;SDS011;63545;51.690;5.202;2023-04-01T16:06:56;21.75;;;9.50;;
74995;SDS011;63545;51.690;5.202;2023-04-01T16:18:27;20.13;;;7.38;;
74995;SDS011;63545;51.690;5.202;2023-04-01T16:26:59;20.83;;;9.73;;
74995;SDS011;63545;51.690;5.202;2023-04-01T16:29:36;14.63;;;7.93;;
74995;SDS011;63545;51.690;5.202;2023-04-01T16:34:46;25.05;;;11.85;;
74995;SDS011;63545;51.690;5.202;2023-04-01T16:37:20;21.50;;;9.95;;
74995;SDS011;63545;51.690;5.202;2023-04-01T16:39:53;23.70;;;10.20;;
74995;SDS011;63545;51.690;5.202;2023-04-01T16:42:34;21.67;;;10.32;;
74995;SDS011;63545;51.690;5.202;2023-04-01T16:48:07;24.98;;;10.13;;
74995;SDS011;63545;51.690;5.202;2023-04-01T16:53:16;20.57;;;9.17;;
74995;SDS011;63545;51.690;5.202;2023-04-01T16:55:49;19.05;;;8.77;;
74995;SDS011;63545;51.690;5.202;2023-04-01T17:01:12;14.75;;;8.07;;
74995;SDS011;63545;51.690;5.202;2023-04-01T17:03:41;17.20;;;8.10;;
74995;SDS011;63545;51.690;5.202;2023-04-01T17:06:17;16.60;;;8.10;;
74995;SDS011;63545;51.690;5.202;2023-04-01T17:09:04;17.20;;;8.15;;
74995;SDS011;63545;51.690;5.202;2023-04-01T17:25:09;14.15;;;7.93;;
74995;SDS011;63545;51.690;5.202;2023-04-01T17:30:28;14.07;;;8.43;;
74995;SDS011;63545;51.690;5.202;2023-04-01T17:41:29;13.02;;;8.27;;
74995;SDS011;63545;51.690;5.202;2023-04-01T17:47:12;17.38;;;9.35;;
74995;SDS011;63545;51.690;5.202;2023-04-01T17:52:44;17.67;;;10.05;;
74995;SDS011;63545;51.690;5.202;2023-04-01T18:09:28;13.52;;;8.48;;
74995;SDS011;63545;51.690;5.202;2023-04-01T18:12:04;12.63;;;8.13;;
74995;SDS011;63545;51.690;5.202;2023-04-01T18:17:27;13.43;;;8.07;;
74995;SDS011;63545;51.690;5.202;2023-04-01T18:22:45;15.80;;;9.00;;
74995;SDS011;63545;51.690;5.202;2023-04-01T18:25:39;17.40;;;10.00;;
74995;SDS011;63545;51.690;5.202;2023-04-01T18:30:52;19.80;;;10.18;;
74995;SDS011;63545;51.690;5.202;2023-04-01T18:33:25;18.87;;;10.67;;
74995;SDS011;63545;51.690;5.202;2023-04-01T18:36:03;15.77;;;9.63;;
74995;SDS011;63545;51.690;5.202;2023-04-01T18:38:40;16.95;;;10.65;;
74995;SDS011;63545;51.690;5.202;2023-04-01T18:49:58;21.48;;;11.52;;
74995;SDS011;63545;51.690;5.202;2023-04-01T18:57:46;18.63;;;11.20;;
74995;SDS011;63545;51.690;5.202;2023-04-01T19:00:14;19.17;;;10.93;;
74995;SDS011;63545;51.690;5.202;2023-04-01T19:07:53;17.08;;;10.95;;
74995;SDS011;63545;51.690;5.202;2023-04-01T19:10:26;18.27;;;11.55;;
74995;SDS011;63545;51.690;5.202;2023-04-01T19:13:11;18.23;;;11.15;;
74995;SDS011;63545;51.690;5.202;2023-04-01T19:26:19;14.15;;;9.93;;
74995;SDS011;63545;51.690;5.202;2023-04-01T19:29:20;14.55;;;9.60;;
74995;SDS011;63545;51.690;5.202;2023-04-01T19:31:53;17.20;;;9.83;;
74995;SDS011;63545;51.690;5.202;2023-04-01T19:37:32;14.55;;;9.68;;
74995;SDS011;63545;51.690;5.202;2023-04-01T19:45:36;14.20;;;9.33;;
74995;SDS011;63545;51.690;5.202;2023-04-01T19:53:57;13.82;;;8.90;;
74995;SDS011;63545;51.690;5.202;2023-04-01T19:56:31;13.68;;;8.93;;
74995;SDS011;63545;51.690;5.202;2023-04-01T20:01:41;12.43;;;8.25;;
74995;SDS011;63545;51.690;5.202;2023-04-01T20:15:27;13.45;;;8.93;;
74995;SDS011;63545;51.690;5.202;2023-04-01T20:17:57;13.43;;;7.97;;
74995;SDS011;63545;51.690;5.202;2023-04-01T20:20:26;16.00;;;9.80;;
74995;SDS011;63545;51.690;5.202;2023-04-01T20:23:02;14.80;;;9.32;;
74995;SDS011;63545;51.690;5.202;2023-04-01T20:25:33;15.53;;;10.00;;
74995;SDS011;63545;51.690;5.202;2023-04-01T20:28:13;16.73;;;10.77;;
74995;SDS011;63545;51.690;5.202;2023-04-01T20:44:19;14.23;;;8.85;;
74995;SDS011;63545;51.690;5.202;2023-04-01T20:52:21;12.50;;;8.03;;
74995;SDS011;63545;51.690;5.202;2023-04-01T20:55:03;23.77;;;10.57;;
74995;SDS011;63545;51.690;5.202;2023-04-01T20:57:44;15.52;;;9.60;;
74995;SDS011;63545;51.690;5.202;2023-04-01T21:00:27;12.35;;;8.85;;
74995;SDS011;63545;51.690;5.202;2023-04-01T21:03:13;12.85;;;8.18;;
74995;SDS011;63545;51.690;5.202;2023-04-01T21:12:05;10.15;;;7.50;;
74995;SDS011;63545;51.690;5.202;2023-04-01T21:29:55;14.45;;;8.98;;
74995;SDS011;63545;51.690;5.202;2023-04-01T21:35:26;16.57;;;10.27;;
74995;SDS011;63545;51.690;5.202;2023-04-01T21:38:56;16.60;;;10.20;;
74995;SDS011;63545;51.690;5.202;2023-04-01T21:43:57;18.35;;;11.45;;
74995;SDS011;63545;51.690;5.202;2023-04-01T21:52:57;22.15;;;10.57;;
74995;SDS011;63545;51.690;5.202;2023-04-01T22:08:38;24.90;;;13.13;;
74995;SDS011;63545;51.690;5.202;2023-04-01T22:11:30;26.33;;;13.98;;
74995;SDS011;63545;51.690;5.202;2023-04-01T22:22:21;25.90;;;13.43;;
74995;SDS011;63545;51.690;5.202;2023-04-01T22:27:49;27.05;;;14.65;;
74995;SDS011;63545;51.690;5.202;2023-04-01T22:30:20;21.90;;;10.83;;
74995;SDS011;63545;51.690;5.202;2023-04-01T22:32:50;25.58;;;14.32;;
74995;SDS011;63545;51.690;5.202;2023-04-01T22:35:49;23.73;;;14.02;;
74995;SDS011;63545;51.690;5.202;2023-04-01T22:44:57;18.37;;;10.30;;
74995;SDS011;63545;51.690;5.202;2023-04-01T22:47:40;18.92;;;11.43;;
74995;SDS011;63545;51.690;5.202;2023-04-01T22:50:32;20.08;;;11.32;;
74995;SDS011;63545;51.690;5.202;2023-04-01T22:53:08;18.02;;;10.80;;
74995;SDS011;63545;51.690;5.202;2023-04-01T22:56:05;16.58;;;9.25;;
74995;SDS011;63545;51.690;5.202;2023-04-01T22:58:34;16.67;;;9.93;;
74995;SDS011;63545;51.690;5.202;2023-04-01T23:01:06;17.52;;;10.60;;
74995;SDS011;63545;51.690;5.202;2023-04-01T23:03:34;16.95;;;9.85;;
74995;SDS011;63545;51.690;5.202;2023-04-01T23:06:05;17.30;;;9.48;;
74995;SDS011;63545;51.690;5.202;2023-04-01T23:11:17;16.65;;;10.57;;
74995;SDS011;63545;51.690;5.202;2023-04-01T23:16:43;19.58;;;11.02;;
74995;SDS011;63545;51.690;5.202;2023-04-01T23:19:20;19.87;;;10.63;;
74995;SDS011;63545;51.690;5.202;2023-04-01T23:21:49;20.45;;;11.23;;
74995;SDS011;63545;51.690;5.202;2023-04-01T23:29:37;17.40;;;10.98;;
74995;SDS011;63545;51.690;5.202;2023-04-01T23:32:19;21.40;;;11.80;;
74995;SDS011;63545;51.690;5.202;2023-04-01T23:34:50;20.55;;;11.70;;
74995;SDS011;63545;51.690;5.202;2023-04-01T23:37:16;19.17;;;11.38;;
74995;SDS011;63545;51.690;5.202;2023-04-01T23:39:44;19.30;;;10.55;;
74995;SDS011;63545;51.690;5.202;2023-04-01T23:42:15;20.23;;;12.20;;
74995;SDS011;63545;51.690;5.202;2023-04-01T23:44:48;20.40;;;12.33;;
74995;SDS011;63545;51.690;5.202;2023-04-01T23:47:18;18.27;;;10.88;;
74995;SDS011;63545;51.690;5.202;2023-04-01T23:49:53;19.80;;;12.10;;
74995;SDS011;63545;51.690;5.202;2023-04-01T23:57:32;18.20;;;11.38;;
